Time;durP1;ratioP1;P1;durP2;ratioP2;P2;SDS_P1;SDS_P2;PMS_P1;PMS_P2;Temp;Humidity;BMP_temperature;BMP_pressure;BME280_temperature;BME280_humidity;BME280_pressure;Samples;Min_cycle;Max_cycle;Signal;HPM_P1;HPM_P2
2021/06/03 00:02:16;;;;;;;4.47;3.93;;;17.30;1.00;;;;;;5070949;28;20214;-58
2021/06/03 00:04:42;;;;;;;4.30;3.90;;;17.30;1.00;;;;;;5070306;28;20183;-59
2021/06/03 00:07:10;;;;;;;4.30;3.90;;;17.30;1.00;;;;;;5069343;28;20452;-60
2021/06/03 00:09:35;;;;;;;4.30;4.00;;;17.30;1.00;;;;;;5071546;28;20198;-58
2021/06/03 00:12:01;;;;;;;7.60;4.70;;;17.30;1.00;;;;;;5070154;28;20437;-59
2021/06/03 00:14:26;;;;;;;5.10;4.60;;;17.30;1.00;;;;;;5071193;28;20281;-59
2021/06/03 00:16:52;;;;;;;4.53;4.13;;;17.30;1.00;;;;;;5070910;28;20200;-60
2021/06/03 00:19:18;;;;;;;5.17;4.67;;;17.20;1.00;;;;;;5065749;28;20187;-60
2021/06/03 00:21:44;;;;;;;5.17;4.60;;;17.30;1.00;;;;;;5070641;28;20579;-58
2021/06/03 00:24:11;;;;;;;4.43;4.03;;;17.30;1.00;;;;;;5070594;28;20210;-59
2021/06/03 00:26:37;;;;;;;4.53;4.13;;;17.20;1.00;;;;;;5067686;28;20446;-60
2021/06/03 00:29:04;;;;;;;6.13;4.33;;;17.20;1.00;;;;;;5067587;28;20451;-58
2021/06/03 00:31:30;;;;;;;5.23;4.73;;;17.20;1.00;;;;;;5068985;28;20442;-59
2021/06/03 00:33:55;;;;;;;5.10;4.60;;;17.20;1.00;;;;;;5065420;28;20522;-59
2021/06/03 00:36:21;;;;;;;5.03;4.50;;;17.20;1.00;;;;;;5068333;28;20955;-59
2021/06/03 00:38:46;;;;;;;6.30;4.90;;;17.20;1.00;;;;;;5071147;28;20179;-58
2021/06/03 00:41:14;;;;;;;5.67;4.30;;;17.10;1.00;;;;;;5083462;28;20221;-60
2021/06/03 00:43:40;;;;;;;5.57;4.70;;;17.10;1.00;;;;;;5111270;28;20563;-59
2021/06/03 00:46:06;;;;;;;5.10;4.60;;;17.00;1.00;;;;;;5110554;28;20443;-58
2021/06/03 00:48:33;;;;;;;4.80;4.43;;;17.00;1.00;;;;;;5093796;28;21574;-58
2021/06/03 00:51:01;;;;;;;4.90;4.50;;;17.00;1.00;;;;;;5111313;28;20927;-58
2021/06/03 00:53:27;;;;;;;5.23;4.73;;;16.90;1.00;;;;;;5110974;28;20436;-59
2021/06/03 00:55:57;;;;;;;5.40;4.80;;;17.00;1.00;;;;;;5109505;28;20435;-58
2021/06/03 00:58:23;;;;;;;5.50;4.90;;;17.00;1.00;;;;;;5110876;28;20443;-58
2021/06/03 01:00:50;;;;;;;6.00;5.40;;;16.90;1.00;;;;;;5110794;28;20492;-57
2021/06/03 01:03:17;;;;;;;5.33;4.90;;;16.90;1.00;;;;;;5110087;28;20556;-58
2021/06/03 01:05:49;;;;;;;5.10;4.60;;;16.80;1.00;;;;;;5110570;28;20435;-59
2021/06/03 01:08:21;;;;;;;5.20;4.80;;;16.90;1.00;;;;;;5091408;28;20800;-61
2021/06/03 01:11:22;;;;;;;5.97;5.33;;;16.90;1.00;;;;;;5108849;28;20451;-58
2021/06/03 01:13:52;;;;;;;5.07;4.57;;;17.00;1.00;;;;;;5090668;28;20455;-58
2021/06/03 01:16:18;;;;;;;6.00;5.37;;;16.90;1.00;;;;;;5109907;28;20448;-58
2021/06/03 01:18:45;;;;;;;7.73;5.80;;;16.90;1.00;;;;;;5109055;28;20447;-59
2021/06/03 01:21:22;;;;;;;5.50;5.00;;;16.80;1.00;;;;;;5106999;28;20948;-59
2021/06/03 01:24:00;;;;;;;6.70;5.37;;;16.70;1.00;;;;;;5110428;28;20514;-59
2021/06/03 01:26:27;;;;;;;6.10;5.60;;;16.70;1.00;;;;;;5105615;28;20742;-59
2021/06/03 01:28:52;;;;;;;6.00;5.50;;;16.80;1.00;;;;;;5107665;28;20440;-58
2021/06/03 01:31:20;;;;;;;5.87;5.27;;;16.70;1.00;;;;;;5110421;28;20455;-59
2021/06/03 01:33:45;;;;;;;5.80;5.17;;;16.70;1.00;;;;;;5108047;28;20189;-59
2021/06/03 01:36:14;;;;;;;6.10;5.60;;;16.70;1.00;;;;;;5109614;28;20448;-58
2021/06/03 01:38:41;;;;;;;6.17;4.93;;;16.60;1.00;;;;;;5091522;28;20195;-59
2021/06/03 01:41:09;;;;;;;6.20;5.60;;;16.70;1.00;;;;;;5109950;28;20833;-58
2021/06/03 01:43:37;;;;;;;6.87;5.30;;;16.60;1.00;;;;;;5105213;28;20459;-59
2021/06/03 01:46:04;;;;;;;5.90;5.33;;;16.60;1.00;;;;;;5110256;28;20435;-59
2021/06/03 01:48:30;;;;;;;6.10;5.50;;;16.60;1.00;;;;;;5092295;28;20801;-60
2021/06/03 01:50:59;;;;;;;6.00;5.50;;;16.50;1.00;;;;;;5097335;28;20450;-59
2021/06/03 01:53:28;;;;;;;6.40;5.80;;;16.60;1.00;;;;;;5117439;28;20454;-58
2021/06/03 01:55:55;;;;;;;5.97;5.47;;;16.50;1.00;;;;;;5116561;28;20446;-58
2021/06/03 01:58:22;;;;;;;5.83;5.27;;;16.40;1.00;;;;;;5114647;28;20516;-58
2021/06/03 02:00:48;;;;;;;6.77;6.17;;;16.40;1.00;;;;;;5099236;28;20856;-58
2021/06/03 02:03:14;;;;;;;5.70;5.20;;;16.30;1.00;;;;;;5116947;28;20543;-59
2021/06/03 02:05:40;;;;;;;5.67;4.90;;;16.30;1.00;;;;;;5115383;27;20952;-58
2021/06/03 02:08:05;;;;;;;6.27;5.77;;;16.30;1.00;;;;;;5115410;28;20939;-60
2021/06/03 02:10:31;;;;;;;9.20;5.53;;;16.20;1.00;;;;;;5116750;28;20197;-58
2021/06/03 02:13:17;;;;;;;5.80;4.87;;;16.30;1.00;;;;;;5114811;28;20223;-58
2021/06/03 02:15:56;;;;;;;6.03;5.37;;;16.30;1.00;;;;;;5116419;28;20204;-57
2021/06/03 02:18:29;;;;;;;7.37;5.50;;;16.30;1.00;;;;;;5115614;28;20482;-58
2021/06/03 02:20:57;;;;;;;6.30;5.53;;;16.30;1.00;;;;;;5116590;28;20436;-59
2021/06/03 02:23:24;;;;;;;5.40;4.90;;;17.80;1.00;;;;;;5105520;28;20496;-58
2021/06/03 02:25:51;;;;;;;6.53;5.93;;;16.20;1.00;;;;;;5116698;28;20440;-59
2021/06/03 02:28:17;;;;;;;5.23;4.80;;;16.20;1.00;;;;;;5115344;28;20443;-58
2021/06/03 02:30:43;;;;;;;6.10;5.37;;;16.20;1.00;;;;;;5098453;28;20447;-58
2021/06/03 02:33:09;;;;;;;5.83;5.30;;;16.20;1.00;;;;;;5108358;28;20520;-58
2021/06/03 02:35:34;;;;;;;6.03;5.53;;;16.20;1.00;;;;;;5092176;27;20946;-60
2021/06/03 02:38:00;;;;;;;6.53;5.87;;;16.20;1.00;;;;;;5103566;27;20187;-59
2021/06/03 02:40:28;;;;;;;5.83;5.27;;;16.20;1.00;;;;;;5116378;28;20186;-58
2021/06/03 02:42:55;;;;;;;9.10;5.30;;;16.20;1.00;;;;;;5109230;28;20560;-59
2021/06/03 02:45:38;;;;;;;6.57;5.93;;;16.30;1.00;;;;;;5116611;28;20432;-58
2021/06/03 02:48:04;;;;;;;6.33;5.70;;;16.10;1.00;;;;;;5115099;28;20467;-58
2021/06/03 02:50:30;;;;;;;6.30;5.80;;;16.20;1.00;;;;;;5114044;28;20444;-58
2021/06/03 02:52:56;;;;;;;5.37;4.87;;;16.20;1.00;;;;;;5116731;28;20500;-60
2021/06/03 02:55:23;;;;;;;6.13;5.57;;;16.30;1.00;;;;;;5116172;28;20178;-58
2021/06/03 02:57:50;;;;;;;6.33;5.70;;;16.30;1.00;;;;;;5115321;28;20526;-58
2021/06/03 03:00:19;;;;;;;6.43;5.83;;;16.20;1.00;;;;;;5113104;28;21036;-57
2021/06/03 03:02:45;;;;;;;6.63;5.57;;;16.20;1.00;;;;;;5102620;28;20501;-58
2021/06/03 03:05:11;;;;;;;6.03;5.43;;;16.30;1.00;;;;;;5112862;28;20548;-59
2021/06/03 03:07:37;;;;;;;6.10;5.60;;;16.30;1.00;;;;;;5113098;28;20768;-58
2021/06/03 03:10:07;;;;;;;6.70;5.20;;;16.30;1.00;;;;;;5110937;28;20427;-59
2021/06/03 03:12:33;;;;;;;6.07;5.23;;;16.40;1.00;;;;;;5094302;28;20442;-58
2021/06/03 03:14:59;;;;;;;5.87;5.37;;;16.40;1.00;;;;;;5112816;28;20526;-59
2021/06/03 03:17:25;;;;;;;5.50;5.00;;;16.40;1.00;;;;;;5111906;28;20498;-58
2021/06/03 03:19:51;;;;;;;5.77;5.27;;;16.30;1.00;;;;;;5109617;28;20966;-58
2021/06/03 03:22:16;;;;;;;7.53;5.30;;;16.30;1.00;;;;;;5112650;28;20220;-59
2021/06/03 03:24:42;;;;;;;7.10;5.37;;;16.40;1.00;;;;;;5112380;28;20178;-59
2021/06/03 03:27:07;;;;;;;7.90;5.53;;;16.50;1.00;;;;;;5108852;28;20197;-58
2021/06/03 03:29:33;;;;;;;7.07;5.30;;;16.50;1.00;;;;;;5110782;28;20193;-58
2021/06/03 03:31:59;;;;;;;5.93;5.33;;;16.70;1.00;;;;;;5111340;28;20183;-59
2021/06/03 03:34:24;;;;;;;7.10;5.10;;;17.00;1.00;;;;;;5092819;28;20178;-59
2021/06/03 03:36:50;;;;;;;5.70;5.30;;;17.20;1.00;;;;;;5110823;28;20223;-58
2021/06/03 03:39:16;;;;;;;6.13;5.53;;;17.50;1.00;;;;;;5110072;28;20996;-58
2021/06/03 03:41:41;;;;;;;7.00;4.80;;;17.60;1.00;;;;;;5111605;28;20222;-58
2021/06/03 03:44:07;;;;;;;6.33;5.73;;;17.80;1.00;;;;;;5111566;28;20209;-58
2021/06/03 03:46:33;;;;;;;5.13;4.63;;;18.00;1.00;;;;;;5092676;28;20182;-59
2021/06/03 03:48:58;;;;;;;5.90;5.40;;;18.20;1.00;;;;;;5112013;28;20327;-59
2021/06/03 03:51:25;;;;;;;7.60;5.80;;;18.20;1.00;;;;;;5111931;28;20187;-58
2021/06/03 03:53:50;;;;;;;6.20;5.47;;;18.10;1.00;;;;;;5111602;28;20178;-59
2021/06/03 03:56:16;;;;;;;5.97;5.47;;;17.90;1.00;;;;;;5108637;28;20525;-59
2021/06/03 03:58:43;;;;;;;6.13;5.37;;;17.80;1.00;;;;;;5093193;27;20227;-58
2021/06/03 04:01:09;;;;;;;5.80;5.30;;;17.70;1.00;;;;;;5112163;28;20547;-58
2021/06/03 04:03:35;;;;;;;5.97;5.07;;;17.60;1.00;;;;;;5111926;27;20520;-58
2021/06/03 04:06:02;;;;;;;13.13;6.73;;;17.60;1.00;;;;;;5111347;28;20443;-58
2021/06/03 04:08:28;;;;;;;6.97;5.40;;;17.50;1.00;;;;;;5112042;28;20468;-59
2021/06/03 04:10:54;;;;;;;12.33;5.90;;;17.50;1.00;;;;;;5110246;28;20472;-58
2021/06/03 04:13:19;;;;;;;6.30;4.87;;;17.50;1.00;;;;;;5111702;28;20448;-59
2021/06/03 04:15:45;;;;;;;8.50;5.40;;;17.50;1.00;;;;;;5111132;28;20460;-60
2021/06/03 04:18:11;;;;;;;7.83;5.10;;;17.70;1.00;;;;;;5093748;28;20173;-59
2021/06/03 04:20:36;;;;;;;7.23;4.97;;;17.90;1.00;;;;;;5111330;28;20189;-59
2021/06/03 04:23:02;;;;;;;5.60;4.90;;;17.80;1.00;;;;;;5111210;28;20567;-58
2021/06/03 04:25:28;;;;;;;5.80;5.20;;;17.90;1.00;;;;;;5109318;27;20183;-59
2021/06/03 04:27:54;;;;;;;6.43;4.87;;;17.90;1.00;;;;;;5108929;28;20248;-58
2021/06/03 04:30:23;;;;;;;7.53;4.43;;;18.10;1.00;;;;;;5092815;28;21019;-58
2021/06/03 04:32:49;;;;;;;6.70;5.10;;;18.20;1.00;;;;;;5094082;28;20940;-59
2021/06/03 04:35:17;;;;;;;6.00;5.50;;;18.20;1.00;;;;;;5110972;28;20447;-58
2021/06/03 04:37:44;;;;;;;6.90;5.27;;;18.20;1.00;;;;;;5111037;28;20447;-60
2021/06/03 04:40:12;;;;;;;5.90;4.73;;;18.30;1.00;;;;;;5092755;28;20478;-62
2021/06/03 04:42:38;;;;;;;5.90;5.40;;;18.30;1.00;;;;;;5110818;28;20471;-60
2021/06/03 04:45:05;;;;;;;5.00;4.57;;;18.30;1.00;;;;;;5093828;28;20432;-62
2021/06/03 04:47:32;;;;;;;4.73;4.33;;;18.40;1.00;;;;;;5109510;28;20836;-63
2021/06/03 04:49:57;;;;;;;6.00;4.97;;;18.40;1.00;;;;;;5110527;28;20431;-62
2021/06/03 04:52:26;;;;;;;5.33;4.80;;;18.40;1.00;;;;;;5093379;28;20938;-61
2021/06/03 04:54:58;;;;;;;5.23;4.73;;;18.60;1.00;;;;;;5091751;28;20231;-60
2021/06/03 04:57:24;;;;;;;5.73;4.67;;;18.60;1.00;;;;;;5099534;27;20444;-62
2021/06/03 04:59:50;;;;;;;6.10;5.43;;;18.70;1.00;;;;;;5111459;28;20785;-62
2021/06/03 05:02:16;;;;;;;5.77;4.70;;;18.80;1.00;;;;;;5111158;28;20444;-63
2021/06/03 05:04:42;;;;;;;6.43;4.87;;;18.80;1.00;;;;;;5111547;28;20627;-61
2021/06/03 05:07:07;;;;;;;5.33;4.30;;;19.00;1.00;;;;;;5110938;28;20485;-63
2021/06/03 05:09:33;;;;;;;5.17;4.60;;;19.10;1.00;;;;;;5111314;28;20231;-61
2021/06/03 05:11:59;;;;;;;5.33;4.50;;;19.30;1.00;;;;;;5092442;28;20182;-63
2021/06/03 05:14:24;;;;;;;5.80;5.10;;;19.40;1.00;;;;;;5092842;28;20269;-62
2021/06/03 05:16:50;;;;;;;6.83;5.03;;;19.50;1.00;;;;;;5092633;28;20190;-63
2021/06/03 05:19:15;;;;;;;7.53;4.80;;;19.50;1.00;;;;;;5111083;28;20269;-64
2021/06/03 05:21:41;;;;;;;5.57;5.03;;;19.60;1.00;;;;;;5110448;28;20631;-63
2021/06/03 05:24:06;;;;;;;4.97;4.50;;;19.60;1.00;;;;;;5109200;28;20212;-62
2021/06/03 05:26:32;;;;;;;4.50;4.07;;;19.60;1.00;;;;;;5110453;28;20196;-62
2021/06/03 05:28:58;;;;;;;5.47;4.97;;;19.60;1.00;;;;;;5110899;28;20174;-63
2021/06/03 05:31:23;;;;;;;6.60;4.90;;;19.70;1.00;;;;;;5111109;27;20627;-61
2021/06/03 05:33:49;;;;;;;5.83;5.10;;;19.70;1.00;;;;;;5104387;28;20185;-63
2021/06/03 05:36:14;;;;;;;7.53;4.90;;;19.90;1.00;;;;;;5097460;28;20194;-62
2021/06/03 05:38:40;;;;;;;4.70;4.13;;;19.90;1.00;;;;;;5107719;28;20280;-62
2021/06/03 05:41:05;;;;;;;5.00;4.50;;;20.00;1.00;;;;;;5110277;28;20218;-61
2021/06/03 05:43:31;;;;;;;6.20;5.23;;;20.10;1.00;;;;;;5109733;28;20205;-61
2021/06/03 05:45:57;;;;;;;5.70;5.20;;;20.10;1.00;;;;;;5108845;28;20257;-61
2021/06/03 05:48:22;;;;;;;11.90;5.30;;;20.30;1.00;;;;;;5110381;28;20177;-62
2021/06/03 05:50:48;;;;;;;6.00;5.40;;;20.30;1.00;;;;;;5110328;28;20205;-62
2021/06/03 05:53:13;;;;;;;7.47;5.17;;;20.40;1.00;;;;;;5091485;28;20196;-61
2021/06/03 05:55:39;;;;;;;5.43;4.50;;;20.40;1.00;;;;;;5108845;28;20180;-62
2021/06/03 05:58:04;;;;;;;5.53;4.33;;;20.40;1.00;;;;;;5110418;28;20220;-63
2021/06/03 06:00:33;;;;;;;7.10;4.80;;;20.50;1.00;;;;;;5107199;28;20182;-61
2021/06/03 06:03:04;;;;;;;4.93;4.43;;;20.60;1.00;;;;;;5109684;28;20593;-62
2021/06/03 06:08:15;;;;;;;9.57;4.77;;;20.60;1.00;;;;;;5109769;28;20541;-62
2021/06/03 06:10:43;;;;;;;6.67;5.03;;;20.70;1.00;;;;;;5094842;28;20415;-63
2021/06/03 06:13:09;;;;;;;5.60;5.17;;;20.80;1.00;;;;;;5091426;28;20438;-63
2021/06/03 06:15:37;;;;;;;7.83;4.40;;;20.90;1.00;;;;;;5104014;28;20448;-62
2021/06/03 06:18:04;;;;;;;6.10;5.50;;;20.90;1.00;;;;;;5090409;28;20455;-63
2021/06/03 06:20:30;;;;;;;6.23;4.70;;;21.00;1.00;;;;;;5090010;28;20871;-63
2021/06/03 06:22:57;;;;;;;5.50;5.00;;;20.90;1.00;;;;;;5107000;28;20459;-61
2021/06/03 06:25:23;;;;;;;5.10;4.60;;;21.00;1.00;;;;;;5098919;28;20466;-62
2021/06/03 06:27:49;;;;;;;10.60;5.30;;;21.10;1.00;;;;;;5109056;28;20438;-62
2021/06/03 06:30:16;;;;;;;4.77;4.37;;;21.30;1.00;;;;;;5109885;28;20446;-61
2021/06/03 06:32:42;;;;;;;8.07;5.00;;;21.50;1.00;;;;;;5109183;28;20181;-63
2021/06/03 06:35:09;;;;;;;5.27;4.77;;;21.60;1.00;;;;;;5111204;28;20439;-61
2021/06/03 06:37:35;;;;;;;6.97;4.70;;;21.80;1.00;;;;;;5094743;28;20193;-62
2021/06/03 06:40:02;;;;;;;5.00;4.53;;;21.90;1.00;;;;;;5113887;28;20435;-61
2021/06/03 06:42:30;;;;;;;5.77;4.53;;;22.00;1.00;;;;;;5113234;28;20453;-63
2021/06/03 06:44:56;;;;;;;5.43;4.00;;;22.00;1.00;;;;;;5098210;28;20512;-61
2021/06/03 06:47:21;;;;;;;6.50;4.70;;;22.20;1.00;;;;;;5113236;28;20435;-62
2021/06/03 06:49:48;;;;;;;6.83;4.87;;;22.30;1.00;;;;;;5113067;28;20936;-61
2021/06/03 06:52:14;;;;;;;5.23;4.73;;;22.40;1.00;;;;;;5113379;28;20189;-63
2021/06/03 06:54:40;;;;;;;7.07;3.90;;;22.40;1.00;;;;;;5095340;28;20505;-61
2021/06/03 06:57:06;;;;;;;7.93;4.80;;;22.50;1.00;;;;;;5113444;28;20929;-62
2021/06/03 06:59:32;;;;;;;6.63;5.00;;;22.60;1.00;;;;;;5113083;28;20671;-61
2021/06/03 07:01:57;;;;;;;5.43;3.80;;;22.60;1.00;;;;;;5112536;28;20480;-61
2021/06/03 07:04:23;;;;;;;6.60;4.60;;;22.70;1.00;;;;;;5113361;28;20209;-61
2021/06/03 07:06:48;;;;;;;5.93;4.10;;;22.70;1.00;;;;;;5113142;28;20186;-62
2021/06/03 07:09:14;;;;;;;5.33;4.30;;;22.80;1.00;;;;;;5113283;28;20652;-62
2021/06/03 07:11:40;;;;;;;5.47;4.93;;;22.90;1.00;;;;;;5112838;28;20182;-62
2021/06/03 07:14:05;;;;;;;5.33;4.80;;;23.00;1.00;;;;;;5113949;27;20651;-63
2021/06/03 07:16:31;;;;;;;6.17;5.00;;;23.00;1.00;;;;;;5110689;28;20444;-63
2021/06/03 07:18:57;;;;;;;6.93;5.47;;;22.90;1.00;;;;;;5105027;28;20258;-61
2021/06/03 07:21:22;;;;;;;7.50;5.03;;;22.90;1.00;;;;;;5112176;28;20429;-63
2021/06/03 07:23:48;;;;;;;5.37;4.87;;;23.10;1.00;;;;;;5112465;28;20245;-61
2021/06/03 07:26:14;;;;;;;4.83;4.43;;;23.20;1.00;;;;;;5112703;28;20551;-63
2021/06/03 07:28:40;;;;;;;6.13;4.87;;;23.20;1.00;;;;;;5109621;28;20942;-62
2021/06/03 07:31:06;;;;;;;6.90;4.50;;;23.30;1.00;;;;;;5112943;27;20415;-62
2021/06/03 07:33:32;;;;;;;5.07;4.57;;;23.50;1.00;;;;;;5112635;28;20444;-62
2021/06/03 07:35:57;;;;;;;5.13;4.63;;;23.70;1.00;;;;;;5112433;28;20490;-62
2021/06/03 07:38:23;;;;;;;5.00;4.60;;;23.80;1.00;;;;;;5093904;28;20182;-63
2021/06/03 07:40:50;;;;;;;5.10;4.57;;;24.00;1.00;;;;;;5093831;28;20225;-62
2021/06/03 07:43:17;;;;;;;6.00;4.67;;;24.10;1.00;;;;;;5112478;28;20865;-63
2021/06/03 07:45:43;;;;;;;9.27;5.43;;;23.90;1.00;;;;;;5093550;28;20440;-66
2021/06/03 07:48:09;;;;;;;6.63;4.70;;;24.10;1.00;;;;;;5108699;28;20977;-65
2021/06/03 07:50:37;;;;;;;5.93;4.83;;;24.10;1.00;;;;;;5110145;28;20443;-69
2021/06/03 07:53:05;;;;;;;5.60;4.50;;;24.10;1.00;;;;;;5109583;28;20460;-68
2021/06/03 07:55:31;;;;;;;5.73;4.10;;;24.20;1.00;;;;;;5109274;28;20435;-68
2021/06/03 07:58:00;;;;;;;5.37;4.60;;;24.30;1.00;;;;;;5108845;28;20480;-67
2021/06/03 08:00:27;;;;;;;4.70;4.30;;;24.50;1.00;;;;;;5107383;28;20600;-67
2021/06/03 08:02:53;;;;;;;5.00;4.60;;;24.70;1.00;;;;;;5089854;28;20456;-68
2021/06/03 08:05:21;;;;;;;5.00;4.47;;;24.90;1.00;;;;;;5108134;28;20963;-68
2021/06/03 08:07:48;;;;;;;4.93;4.53;;;25.00;1.00;;;;;;5086348;28;20274;-67
2021/06/03 08:10:18;;;;;;;5.23;4.83;;;25.30;1.00;;;;;;5097828;28;20440;-67
2021/06/03 08:12:44;;;;;;;8.60;5.77;;;25.30;1.00;;;;;;5110014;28;20458;-67
2021/06/03 08:15:11;;;;;;;10.70;4.83;;;25.20;1.00;;;;;;5112049;28;20443;-63
2021/06/03 08:17:37;;;;;;;6.57;4.10;;;25.20;1.00;;;;;;5111149;28;20439;-64
2021/06/03 08:20:11;;;;;;;6.40;4.50;;;25.10;1.00;;;;;;5103460;28;20933;-64
2021/06/03 08:22:37;;;;;;;5.43;4.20;;;25.30;1.00;;;;;;5110841;28;20462;-64
2021/06/03 08:25:04;;;;;;;5.47;4.73;;;25.60;1.00;;;;;;5105625;28;20523;-63
2021/06/03 08:27:30;;;;;;;5.07;4.57;;;25.70;1.00;;;;;;5109338;28;20542;-65
2021/06/03 08:29:55;;;;;;;6.10;4.33;;;25.80;1.00;;;;;;5111634;27;20488;-64
2021/06/03 08:32:22;;;;;;;6.23;4.50;;;25.90;1.00;;;;;;5111393;28;20858;-63
2021/06/03 08:34:47;;;;;;;11.67;5.00;;;25.90;1.00;;;;;;5104908;28;20171;-65
2021/06/03 08:37:13;;;;;;;5.10;4.40;;;25.90;1.00;;;;;;5110374;28;20446;-63
2021/06/03 08:39:38;;;;;;;5.67;3.93;;;26.00;1.00;;;;;;5092357;28;20236;-64
2021/06/03 08:42:05;;;;;;;4.77;4.13;;;25.90;1.00;;;;;;5111010;28;20241;-64
2021/06/03 08:44:32;;;;;;;7.03;4.00;;;26.00;1.00;;;;;;5110792;28;20690;-62
2021/06/03 08:46:58;;;;;;;4.93;4.43;;;26.20;1.00;;;;;;5107373;28;20441;-63
2021/06/03 08:49:24;;;;;;;5.73;4.30;;;26.30;1.00;;;;;;5104148;28;20838;-65
2021/06/03 08:51:54;;;;;;;4.17;3.83;;;26.70;1.00;;;;;;5108583;28;20853;-66
2021/06/03 08:54:20;;;;;;;7.23;4.30;;;26.80;1.00;;;;;;5106173;28;20464;-64
2021/06/03 08:56:46;;;;;;;4.20;3.90;;;26.70;1.00;;;;;;5099214;28;20487;-65
2021/06/03 08:59:12;;;;;;;4.67;3.73;;;26.60;1.00;;;;;;5083670;28;20999;-65
2021/06/03 09:01:40;;;;;;;4.40;4.10;;;26.60;1.00;;;;;;5090482;28;20538;-66
2021/06/03 09:04:06;;;;;;;4.37;3.90;;;26.70;1.00;;;;;;5110806;28;20255;-66
2021/06/03 09:06:32;;;;;;;4.90;3.57;;;26.50;1.00;;;;;;5092568;28;20444;-65
2021/06/03 09:08:59;;;;;;;4.30;3.57;;;26.60;1.00;;;;;;5110143;28;20177;-65
2021/06/03 09:11:27;;;;;;;4.30;3.90;;;26.70;1.00;;;;;;5110687;28;20409;-65
2021/06/03 09:13:55;;;;;;;4.30;3.87;;;26.70;1.00;;;;;;5096048;28;20496;-65
2021/06/03 09:16:27;;;;;;;4.27;3.73;;;26.90;1.00;;;;;;5110703;28;20432;-65
2021/06/03 09:19:19;;;;;;;6.20;4.50;;;27.10;1.00;;;;;;5110650;28;20455;-65
2021/06/03 09:21:51;;;;;;;4.43;3.83;;;27.30;1.00;;;;;;5106064;28;20471;-64
2021/06/03 09:24:18;;;;;;;4.30;3.90;;;27.40;1.00;;;;;;5110582;28;20744;-65
2021/06/03 09:26:52;;;;;;;5.20;3.40;;;27.50;1.00;;;;;;5110367;28;20453;-65
2021/06/03 09:29:30;;;;;;;5.03;3.73;;;27.50;1.00;;;;;;5092723;28;20434;-65
2021/06/03 09:32:11;;;;;;;3.47;3.17;;;27.70;1.00;;;;;;5110698;28;20438;-65
2021/06/03 09:34:39;;;;;;;5.23;3.60;;;27.50;1.00;;;;;;5092581;28;20471;-65
2021/06/03 09:37:07;;;;;;;3.40;3.03;;;27.50;1.00;;;;;;5110022;28;20436;-66
2021/06/03 09:39:33;;;;;;;4.33;3.50;;;27.60;1.00;;;;;;5110833;28;20447;-65
2021/06/03 09:42:12;;;;;;;3.90;3.60;;;27.40;1.00;;;;;;5110597;28;20460;-66
2021/06/03 09:44:53;;;;;;;3.57;3.27;;;27.30;1.00;;;;;;5110835;28;20440;-66
2021/06/03 09:47:21;;;;;;;4.03;3.63;;;27.30;1.00;;;;;;5110354;28;20443;-66
2021/06/03 09:49:46;;;;;;;3.83;3.50;;;27.30;1.00;;;;;;5110797;28;20424;-65
2021/06/03 09:52:15;;;;;;;3.77;3.47;;;27.30;1.00;;;;;;5110424;28;20451;-65
2021/06/03 09:54:46;;;;;;;4.03;3.63;;;27.10;1.00;;;;;;5110797;28;20193;-66
2021/06/03 09:57:13;;;;;;;4.47;3.80;;;27.10;1.00;;;;;;5110238;28;20500;-65
2021/06/03 09:59:46;;;;;;;5.43;3.30;;;27.20;1.00;;;;;;5110293;28;20506;-66
2021/06/03 10:02:14;;;;;;;4.40;3.47;;;27.30;1.00;;;;;;5101912;28;20457;-65
2021/06/03 10:04:49;;;;;;;5.50;3.90;;;27.40;1.00;;;;;;5090344;28;20934;-67
2021/06/03 10:07:26;;;;;;;5.10;3.50;;;27.50;1.00;;;;;;5105460;28;20438;-65
2021/06/03 10:09:59;;;;;;;3.87;3.57;;;27.80;1.00;;;;;;5110603;28;20451;-66
2021/06/03 10:12:25;;;;;;;3.73;3.43;;;28.10;1.00;;;;;;5114687;28;20473;-65
2021/06/03 10:15:06;;;;;;;4.27;3.80;;;28.20;1.00;;;;;;5114039;28;20439;-66
2021/06/03 10:17:37;;;;;;;5.37;3.57;;;28.10;1.00;;;;;;5114531;28;20702;-66
2021/06/03 10:20:15;;;;;;;4.97;3.30;;;28.00;1.00;;;;;;5114326;28;21002;-65
2021/06/03 10:22:43;;;;;;;4.03;3.37;;;27.80;1.00;;;;;;5114221;28;20459;-65
2021/06/03 10:25:17;;;;;;;4.17;3.77;;;27.70;1.00;;;;;;5114105;28;20474;-65
2021/06/03 10:27:51;;;;;;;4.60;4.20;;;27.90;1.00;;;;;;5096037;28;20435;-66
2021/06/03 10:30:25;;;;;;;4.33;3.93;;;28.10;1.00;;;;;;5114250;28;20777;-66
2021/06/03 10:32:53;;;;;;;3.90;3.60;;;28.40;1.00;;;;;;5100376;28;20455;-66
2021/06/03 10:35:24;;;;;;;4.50;3.27;;;28.30;1.00;;;;;;5093721;28;20514;-66
2021/06/03 10:37:50;;;;;;;3.60;3.33;;;28.10;1.00;;;;;;5090266;27;20417;-66
2021/06/03 10:40:19;;;;;;;3.87;3.47;;;28.30;1.00;;;;;;5095777;28;20462;-65
2021/06/03 10:42:46;;;;;;;6.87;3.60;;;28.40;1.00;;;;;;5073178;28;20469;-66
2021/06/03 10:45:14;;;;;;;3.77;3.43;;;28.50;1.00;;;;;;5073381;28;21050;-67
2021/06/03 10:47:40;;;;;;;3.90;3.43;;;28.40;1.00;;;;;;5073440;28;20915;-65
2021/06/03 10:50:10;;;;;;;3.23;3.00;;;28.50;1.00;;;;;;5073328;28;20437;-66
2021/06/03 10:52:36;;;;;;;3.90;3.13;;;28.50;1.00;;;;;;5072513;28;20452;-67
2021/06/03 10:55:03;;;;;;;5.40;3.70;;;28.70;1.00;;;;;;5071455;28;20448;-67
2021/06/03 10:57:49;;;;;;;3.57;3.27;;;28.80;1.00;;;;;;5073260;28;20416;-66
2021/06/03 11:00:24;;;;;;;13.80;3.73;;;28.70;1.00;;;;;;5073313;28;20486;-66
2021/06/03 11:02:52;;;;;;;3.63;3.33;;;28.60;1.00;;;;;;5072830;28;20936;-66
2021/06/03 11:05:29;;;;;;;4.80;3.37;;;28.60;1.00;;;;;;5073173;28;20529;-66
2021/06/03 11:07:55;;;;;;;4.93;3.43;;;28.70;1.00;;;;;;5072927;28;20433;-66
2021/06/03 11:10:26;;;;;;;6.83;3.50;;;29.00;1.00;;;;;;5072995;28;20442;-65
2021/06/03 11:13:12;;;;;;;3.80;3.50;;;29.00;1.00;;;;;;5072842;28;20217;-65
2021/06/03 11:16:03;;;;;;;3.67;3.37;;;29.20;1.00;;;;;;5072952;28;20430;-65
2021/06/03 11:18:43;;;;;;;3.27;2.97;;;29.40;1.00;;;;;;5072581;28;20425;-65
2021/06/03 11:21:09;;;;;;;4.50;3.30;;;29.10;1.00;;;;;;5069640;28;20795;-67
2021/06/03 11:23:35;;;;;;;6.50;3.73;;;28.80;1.00;;;;;;5072569;28;20468;-66
2021/06/03 11:26:02;;;;;;;4.10;3.80;;;28.90;1.00;;;;;;5072187;28;20441;-65
2021/06/03 11:28:28;;;;;;;3.33;3.03;;;29.10;1.00;;;;;;5072970;28;20187;-66
2021/06/03 11:30:54;;;;;;;3.93;3.63;;;29.30;1.00;;;;;;5072958;28;20930;-66
2021/06/03 11:33:20;;;;;;;3.83;3.53;;;29.60;1.00;;;;;;5072644;28;20270;-66
2021/06/03 11:35:46;;;;;;;3.90;3.37;;;29.50;1.00;;;;;;5072666;28;20912;-66
2021/06/03 11:38:49;;;;;;;3.20;2.90;;;29.50;1.00;;;;;;5072466;28;20503;-67
2021/06/03 11:41:50;;;;;;;3.57;3.37;;;29.70;1.00;;;;;;5086326;28;20270;-66
2021/06/03 11:44:16;;;;;;;4.60;3.67;;;30.20;1.00;;;;;;5001629;28;20500;-66
2021/06/03 11:47:00;;;;;;;3.60;3.30;;;30.50;1.00;;;;;;5080996;28;20516;-66
2021/06/03 11:49:40;;;;;;;3.83;3.50;;;30.60;1.00;;;;;;5112847;28;20174;-66
2021/06/03 11:52:11;;;;;;;3.80;3.50;;;30.90;1.00;;;;;;5112174;28;20436;-68
2021/06/03 11:55:00;;;;;;;4.00;3.60;;;31.00;1.00;;;;;;5112736;28;20582;-64
2021/06/03 11:57:29;;;;;;;6.37;4.77;;;31.10;1.00;;;;;;5087767;28;20460;-67
2021/06/03 12:00:12;;;;;;;4.90;4.03;;;31.20;1.00;;;;;;5096067;28;20422;-67
2021/06/03 12:02:40;;;;;;;5.07;4.60;;;31.30;1.00;;;;;;5104181;28;20802;-68
2021/06/03 12:05:09;;;;;;;6.30;3.60;;;30.90;1.00;;;;;;5109070;28;20493;-67
2021/06/03 12:07:49;;;;;;;3.43;3.23;;;31.10;1.00;;;;;;5112595;28;20432;-67
2021/06/03 12:10:20;;;;;;;4.07;3.77;;;31.60;1.00;;;;;;5112608;28;20464;-67
2021/06/03 12:12:45;;;;;;;4.13;3.70;;;31.40;1.00;;;;;;5111945;28;21154;-66
2021/06/03 12:15:21;;;;;;;3.77;3.47;;;31.50;1.00;;;;;;5112112;28;20492;-66
2021/06/03 12:17:52;;;;;;;5.57;3.63;;;31.30;1.00;;;;;;5112274;28;20180;-66
2021/06/03 12:20:18;;;;;;;4.30;3.50;;;31.20;1.00;;;;;;5112419;28;20409;-66
2021/06/03 12:22:43;;;;;;;7.13;3.50;;;31.50;1.00;;;;;;5111920;28;20433;-68
2021/06/03 12:25:09;;;;;;;3.83;3.50;;;31.70;1.00;;;;;;5110607;27;20186;-67
2021/06/03 12:27:44;;;;;;;3.97;3.67;;;31.50;1.00;;;;;;5091970;28;20183;-66
2021/06/03 12:30:22;;;;;;;4.37;3.90;;;31.40;1.00;;;;;;5091791;28;20848;-65
2021/06/03 12:33:00;;;;;;;6.27;3.90;;;31.20;1.00;;;;;;5102359;28;20448;-67
2021/06/03 12:35:39;;;;;;;3.70;3.37;;;31.10;1.00;;;;;;5112039;28;20439;-65
2021/06/03 12:38:05;;;;;;;4.10;3.80;;;31.20;1.00;;;;;;5111700;28;20431;-66
2021/06/03 12:40:32;;;;;;;3.57;3.27;;;31.40;1.00;;;;;;5111807;28;20940;-67
2021/06/03 12:43:07;;;;;;;4.70;3.87;;;31.40;1.00;;;;;;5111128;28;20964;-67
2021/06/03 12:45:37;;;;;;;3.70;3.40;;;31.30;1.00;;;;;;5111838;28;20435;-67
2021/06/03 12:48:05;;;;;;;3.27;3.03;;;31.30;1.00;;;;;;5093863;28;20973;-68
2021/06/03 12:50:30;;;;;;;3.63;3.33;;;31.20;1.00;;;;;;5111740;28;20519;-67
2021/06/03 12:52:56;;;;;;;6.60;3.90;;;31.30;1.00;;;;;;5111700;28;20542;-66
2021/06/03 12:55:25;;;;;;;6.07;4.60;;;31.50;1.00;;;;;;5097939;27;20178;-67
2021/06/03 12:57:52;;;;;;;4.50;4.00;;;31.40;1.00;;;;;;5093907;27;20182;-67
2021/06/03 13:00:23;;;;;;;7.13;4.33;;;31.30;1.00;;;;;;5091284;28;20439;-69
2021/06/03 13:02:49;;;;;;;4.30;4.00;;;31.30;1.00;;;;;;5101045;28;20459;-66
2021/06/03 13:05:18;;;;;;;4.60;4.20;;;31.10;1.00;;;;;;5111323;28;20817;-66
2021/06/03 13:07:45;;;;;;;5.03;4.40;;;31.00;1.00;;;;;;5111699;28;20418;-67